sensor_id;sensor_type;location;lat;lon;timestamp;temperature;humidity
8178;DHT22;4130;48.740;9.132;2023-04-30T00:00:33;10.60;99.90
8178;DHT22;4130;48.740;9.132;2023-04-30T00:03:00;10.50;99.90
8178;DHT22;4130;48.740;9.132;2023-04-30T00:05:28;10.50;99.90
8178;DHT22;4130;48.740;9.132;2023-04-30T00:07:55;10.50;99.90
8178;DHT22;4130;48.740;9.132;2023-04-30T00:10:22;10.50;99.90
8178;DHT22;4130;48.740;9.132;2023-04-30T00:12:50;10.50;99.90
8178;DHT22;4130;48.740;9.132;2023-04-30T00:15:16;10.40;99.90
8178;DHT22;4130;48.740;9.132;2023-04-30T00:17:43;10.40;99.90
8178;DHT22;4130;48.740;9.132;2023-04-30T00:20:11;10.40;99.90
8178;DHT22;4130;48.740;9.132;2023-04-30T00:22:38;10.40;99.90
8178;DHT22;4130;48.740;9.132;2023-04-30T00:25:05;10.40;99.90
8178;DHT22;4130;48.740;9.132;2023-04-30T00:27:31;10.40;99.90
8178;DHT22;4130;48.740;9.132;2023-04-30T00:29:59;10.30;99.90
8178;DHT22;4130;48.740;9.132;2023-04-30T00:32:29;10.30;99.90
8178;DHT22;4130;48.740;9.132;2023-04-30T00:34:56;10.30;99.90
8178;DHT22;4130;48.740;9.132;2023-04-30T00:37:22;10.20;99.90
8178;DHT22;4130;48.740;9.132;2023-04-30T00:39:49;10.20;99.90
8178;DHT22;4130;48.740;9.132;2023-04-30T00:42:16;10.20;99.90
8178;DHT22;4130;48.740;9.132;2023-04-30T00:44:42;10.20;99.90
8178;DHT22;4130;48.740;9.132;2023-04-30T00:47:11;10.10;99.90
8178;DHT22;4130;48.740;9.132;2023-04-30T00:49:37;10.20;99.90
8178;DHT22;4130;48.740;9.132;2023-04-30T00:52:04;10.20;99.90
8178;DHT22;4130;48.740;9.132;2023-04-30T00:54:31;10.20;99.90
8178;DHT22;4130;48.740;9.132;2023-04-30T00:56:58;10.20;99.90
8178;DHT22;4130;48.740;9.132;2023-04-30T00:59:26;10.20;99.90
8178;DHT22;4130;48.740;9.132;2023-04-30T01:01:54;10.20;99.90
8178;DHT22;4130;48.740;9.132;2023-04-30T01:04:23;10.30;99.90
8178;DHT22;4130;48.740;9.132;2023-04-30T01:06:50;10.20;99.90
8178;DHT22;4130;48.740;9.132;2023-04-30T01:09:17;10.20;99.90
8178;DHT22;4130;48.740;9.132;2023-04-30T01:11:51;10.20;99.90
8178;DHT22;4130;48.740;9.132;2023-04-30T01:14:26;10.20;99.90
8178;DHT22;4130;48.740;9.132;2023-04-30T01:16:59;10.20;99.90
8178;DHT22;4130;48.740;9.132;2023-04-30T01:19:37;10.20;99.90
8178;DHT22;4130;48.740;9.132;2023-04-30T01:22:08;10.20;99.90
8178;DHT22;4130;48.740;9.132;2023-04-30T01:24:54;10.10;99.90
8178;DHT22;4130;48.740;9.132;2023-04-30T01:27:31;10.10;99.90
8178;DHT22;4130;48.740;9.132;2023-04-30T01:30:05;10.10;99.90
8178;DHT22;4130;48.740;9.132;2023-04-30T01:32:31;10.00;99.90
8178;DHT22;4130;48.740;9.132;2023-04-30T01:34:58;10.00;99.90
8178;DHT22;4130;48.740;9.132;2023-04-30T01:37:32;10.00;99.90
8178;DHT22;4130;48.740;9.132;2023-04-30T01:40:12;9.90;99.90
8178;DHT22;4130;48.740;9.132;2023-04-30T01:42:52;9.90;99.90
8178;DHT22;4130;48.740;9.132;2023-04-30T01:45:35;9.80;99.90
8178;DHT22;4130;48.740;9.132;2023-04-30T01:48:18;9.90;99.90
8178;DHT22;4130;48.740;9.132;2023-04-30T01:50:50;9.80;99.90
8178;DHT22;4130;48.740;9.132;2023-04-30T01:53:20;9.80;99.90
8178;DHT22;4130;48.740;9.132;2023-04-30T01:55:50;9.90;99.90
8178;DHT22;4130;48.740;9.132;2023-04-30T01:58:22;9.90;99.90
8178;DHT22;4130;48.740;9.132;2023-04-30T02:00:51;9.90;99.90
8178;DHT22;4130;48.740;9.132;2023-04-30T02:03:18;9.90;99.90
8178;DHT22;4130;48.740;9.132;2023-04-30T02:05:46;9.90;99.90
8178;DHT22;4130;48.740;9.132;2023-04-30T02:08:13;9.90;99.90
8178;DHT22;4130;48.740;9.132;2023-04-30T02:10:40;9.90;99.90
8178;DHT22;4130;48.740;9.132;2023-04-30T02:13:06;9.90;99.90
8178;DHT22;4130;48.740;9.132;2023-04-30T02:15:33;9.90;99.90
8178;DHT22;4130;48.740;9.132;2023-04-30T02:18:01;9.90;99.90
8178;DHT22;4130;48.740;9.132;2023-04-30T02:20:28;9.90;99.90
8178;DHT22;4130;48.740;9.132;2023-04-30T02:22:54;9.90;99.90
8178;DHT22;4130;48.740;9.132;2023-04-30T02:25:21;9.90;99.90
8178;DHT22;4130;48.740;9.132;2023-04-30T02:27:48;9.90;99.90
8178;DHT22;4130;48.740;9.132;2023-04-30T02:30:15;9.80;99.90
8178;DHT22;4130;48.740;9.132;2023-04-30T02:32:44;9.80;99.90
8178;DHT22;4130;48.740;9.132;2023-04-30T02:35:12;9.80;99.90
8178;DHT22;4130;48.740;9.132;2023-04-30T02:37:38;9.80;99.90
8178;DHT22;4130;48.740;9.132;2023-04-30T02:40:06;9.70;99.90
8178;DHT22;4130;48.740;9.132;2023-04-30T02:42:33;9.70;99.90
8178;DHT22;4130;48.740;9.132;2023-04-30T02:45:00;9.60;99.90
8178;DHT22;4130;48.740;9.132;2023-04-30T02:47:27;9.60;99.90
8178;DHT22;4130;48.740;9.132;2023-04-30T02:49:53;9.60;99.90
8178;DHT22;4130;48.740;9.132;2023-04-30T02:52:21;9.60;99.90
8178;DHT22;4130;48.740;9.132;2023-04-30T02:54:48;9.60;99.90
8178;DHT22;4130;48.740;9.132;2023-04-30T02:57:15;9.50;99.90
8178;DHT22;4130;48.740;9.132;2023-04-30T02:59:42;9.50;99.90
8178;DHT22;4130;48.740;9.132;2023-04-30T03:02:10;9.50;99.90
8178;DHT22;4130;48.740;9.132;2023-04-30T03:04:37;9.50;99.90
8178;DHT22;4130;48.740;9.132;2023-04-30T03:07:04;9.40;99.90
8178;DHT22;4130;48.740;9.132;2023-04-30T03:09:32;9.50;99.90
8178;DHT22;4130;48.740;9.132;2023-04-30T03:11:59;9.40;99.90
8178;DHT22;4130;48.740;9.132;2023-04-30T03:14:27;9.40;99.90
8178;DHT22;4130;48.740;9.132;2023-04-30T03:16:54;9.30;99.90
8178;DHT22;4130;48.740;9.132;2023-04-30T03:19:20;9.30;99.90
8178;DHT22;4130;48.740;9.132;2023-04-30T03:21:49;9.40;99.90
8178;DHT22;4130;48.740;9.132;2023-04-30T03:24:16;9.30;99.90
8178;DHT22;4130;48.740;9.132;2023-04-30T03:26:44;9.30;99.90
8178;DHT22;4130;48.740;9.132;2023-04-30T03:29:11;9.30;99.90
8178;DHT22;4130;48.740;9.132;2023-04-30T03:31:38;9.20;99.90
8178;DHT22;4130;48.740;9.132;2023-04-30T03:34:04;9.20;99.90
8178;DHT22;4130;48.740;9.132;2023-04-30T03:36:31;9.20;99.90
8178;DHT22;4130;48.740;9.132;2023-04-30T03:38:59;9.20;99.90
8178;DHT22;4130;48.740;9.132;2023-04-30T03:41:26;9.20;99.90
8178;DHT22;4130;48.740;9.132;2023-04-30T03:43:54;9.20;99.90
8178;DHT22;4130;48.740;9.132;2023-04-30T03:46:20;9.20;99.90
8178;DHT22;4130;48.740;9.132;2023-04-30T03:48:47;9.20;99.90
8178;DHT22;4130;48.740;9.132;2023-04-30T03:51:14;9.20;99.90
8178;DHT22;4130;48.740;9.132;2023-04-30T03:53:40;9.10;99.90
8178;DHT22;4130;48.740;9.132;2023-04-30T03:56:07;9.10;99.90
8178;DHT22;4130;48.740;9.132;2023-04-30T03:58:34;9.10;99.90
8178;DHT22;4130;48.740;9.132;2023-04-30T04:01:02;9.10;99.90
8178;DHT22;4130;48.740;9.132;2023-04-30T04:03:29;9.10;99.90
8178;DHT22;4130;48.740;9.132;2023-04-30T04:05:56;9.10;99.90
8178;DHT22;4130;48.740;9.132;2023-04-30T04:08:23;9.00;99.90
8178;DHT22;4130;48.740;9.132;2023-04-30T04:10:50;9.00;99.90
8178;DHT22;4130;48.740;9.132;2023-04-30T04:13:17;9.10;99.90
8178;DHT22;4130;48.740;9.132;2023-04-30T04:15:43;9.10;99.90
8178;DHT22;4130;48.740;9.132;2023-04-30T04:18:11;9.00;99.90
8178;DHT22;4130;48.740;9.132;2023-04-30T04:20:38;9.10;99.90
8178;DHT22;4130;48.740;9.132;2023-04-30T04:23:05;9.10;99.90
8178;DHT22;4130;48.740;9.132;2023-04-30T04:25:31;9.10;99.90
8178;DHT22;4130;48.740;9.132;2023-04-30T04:27:58;9.10;99.90
8178;DHT22;4130;48.740;9.132;2023-04-30T04:30:25;9.10;99.90
8178;DHT22;4130;48.740;9.132;2023-04-30T04:32:52;9.10;99.90
8178;DHT22;4130;48.740;9.132;2023-04-30T04:35:20;9.10;99.90
8178;DHT22;4130;48.740;9.132;2023-04-30T04:37:47;9.00;99.90
8178;DHT22;4130;48.740;9.132;2023-04-30T04:40:14;9.00;99.90
8178;DHT22;4130;48.740;9.132;2023-04-30T04:42:40;9.00;99.90
8178;DHT22;4130;48.740;9.132;2023-04-30T04:45:08;9.00;99.90
8178;DHT22;4130;48.740;9.132;2023-04-30T04:47:35;9.00;99.90
8178;DHT22;4130;48.740;9.132;2023-04-30T04:50:02;9.00;99.90
8178;DHT22;4130;48.740;9.132;2023-04-30T04:52:30;9.00;99.90
8178;DHT22;4130;48.740;9.132;2023-04-30T04:54:57;9.10;99.90
8178;DHT22;4130;48.740;9.132;2023-04-30T04:57:24;9.10;99.90
8178;DHT22;4130;48.740;9.132;2023-04-30T04:59:51;9.10;99.90
8178;DHT22;4130;48.740;9.132;2023-04-30T05:02:18;9.10;99.90
8178;DHT22;4130;48.740;9.132;2023-04-30T05:04:45;9.00;99.90
8178;DHT22;4130;48.740;9.132;2023-04-30T05:07:15;9.20;99.90
8178;DHT22;4130;48.740;9.132;2023-04-30T05:09:43;9.20;99.90
8178;DHT22;4130;48.740;9.132;2023-04-30T05:12:09;9.30;99.90
8178;DHT22;4130;48.740;9.132;2023-04-30T05:14:36;9.30;99.90
8178;DHT22;4130;48.740;9.132;2023-04-30T05:17:03;9.30;99.90
8178;DHT22;4130;48.740;9.132;2023-04-30T05:19:30;9.30;99.90
8178;DHT22;4130;48.740;9.132;2023-04-30T05:21:57;9.30;99.90
8178;DHT22;4130;48.740;9.132;2023-04-30T05:24:25;9.40;99.90
8178;DHT22;4130;48.740;9.132;2023-04-30T05:26:53;9.50;99.90
8178;DHT22;4130;48.740;9.132;2023-04-30T05:29:20;9.50;99.90
8178;DHT22;4130;48.740;9.132;2023-04-30T05:31:47;9.60;99.90
8178;DHT22;4130;48.740;9.132;2023-04-30T05:34:14;9.60;99.90
8178;DHT22;4130;48.740;9.132;2023-04-30T05:36:41;9.70;99.90
8178;DHT22;4130;48.740;9.132;2023-04-30T05:39:07;9.80;99.90
8178;DHT22;4130;48.740;9.132;2023-04-30T05:41:34;9.80;99.90
8178;DHT22;4130;48.740;9.132;2023-04-30T05:44:03;9.80;99.90
8178;DHT22;4130;48.740;9.132;2023-04-30T05:46:29;9.90;99.90
8178;DHT22;4130;48.740;9.132;2023-04-30T05:48:56;10.10;99.90
8178;DHT22;4130;48.740;9.132;2023-04-30T05:51:23;10.10;99.90
8178;DHT22;4130;48.740;9.132;2023-04-30T05:53:50;10.30;99.90
8178;DHT22;4130;48.740;9.132;2023-04-30T05:56:16;10.50;99.90
8178;DHT22;4130;48.740;9.132;2023-04-30T05:58:43;10.70;99.90
8178;DHT22;4130;48.740;9.132;2023-04-30T06:01:11;10.90;99.90
8178;DHT22;4130;48.740;9.132;2023-04-30T06:03:38;11.10;99.90
8178;DHT22;4130;48.740;9.132;2023-04-30T06:06:05;11.20;99.90
8178;DHT22;4130;48.740;9.132;2023-04-30T06:08:32;11.20;99.90
8178;DHT22;4130;48.740;9.132;2023-04-30T06:10:58;11.40;99.90
8178;DHT22;4130;48.740;9.132;2023-04-30T06:13:28;11.30;99.90
8178;DHT22;4130;48.740;9.132;2023-04-30T06:15:54;11.40;99.90
8178;DHT22;4130;48.740;9.132;2023-04-30T06:18:23;11.50;99.90
8178;DHT22;4130;48.740;9.132;2023-04-30T06:20:49;11.60;99.90
8178;DHT22;4130;48.740;9.132;2023-04-30T06:23:16;11.70;99.90
8178;DHT22;4130;48.740;9.132;2023-04-30T06:25:43;11.80;99.90
8178;DHT22;4130;48.740;9.132;2023-04-30T06:28:10;11.70;99.90
8178;DHT22;4130;48.740;9.132;2023-04-30T06:30:36;11.70;99.90
8178;DHT22;4130;48.740;9.132;2023-04-30T06:33:03;11.90;99.90
8178;DHT22;4130;48.740;9.132;2023-04-30T06:35:31;11.80;99.90
8178;DHT22;4130;48.740;9.132;2023-04-30T06:37:58;12.00;99.90
8178;DHT22;4130;48.740;9.132;2023-04-30T06:40:25;12.10;99.90
8178;DHT22;4130;48.740;9.132;2023-04-30T06:42:52;12.30;99.90
8178;DHT22;4130;48.740;9.132;2023-04-30T06:45:19;12.40;99.90
8178;DHT22;4130;48.740;9.132;2023-04-30T06:47:46;12.60;99.90
8178;DHT22;4130;48.740;9.132;2023-04-30T06:50:13;12.60;99.90
8178;DHT22;4130;48.740;9.132;2023-04-30T06:52:41;12.70;99.90
8178;DHT22;4130;48.740;9.132;2023-04-30T06:55:10;12.80;99.90
8178;DHT22;4130;48.740;9.132;2023-04-30T06:57:36;12.90;99.90
8178;DHT22;4130;48.740;9.132;2023-04-30T07:00:05;13.00;99.90
8178;DHT22;4130;48.740;9.132;2023-04-30T07:02:32;13.30;99.90
8178;DHT22;4130;48.740;9.132;2023-04-30T07:04:59;13.60;99.90
8178;DHT22;4130;48.740;9.132;2023-04-30T07:07:26;13.80;99.90
8178;DHT22;4130;48.740;9.132;2023-04-30T07:09:54;13.90;99.90
8178;DHT22;4130;48.740;9.132;2023-04-30T07:12:21;14.00;99.90
8178;DHT22;4130;48.740;9.132;2023-04-30T07:14:47;14.30;99.90
8178;DHT22;4130;48.740;9.132;2023-04-30T07:17:14;14.30;99.90
8178;DHT22;4130;48.740;9.132;2023-04-30T07:19:41;14.20;99.90
8178;DHT22;4130;48.740;9.132;2023-04-30T07:22:08;13.90;99.90
8178;DHT22;4130;48.740;9.132;2023-04-30T07:24:35;13.90;99.90
8178;DHT22;4130;48.740;9.132;2023-04-30T07:27:04;13.80;99.90
8178;DHT22;4130;48.740;9.132;2023-04-30T07:29:31;13.70;99.90
8178;DHT22;4130;48.740;9.132;2023-04-30T07:31:58;13.60;99.90
8178;DHT22;4130;48.740;9.132;2023-04-30T07:34:25;13.60;99.90
8178;DHT22;4130;48.740;9.132;2023-04-30T07:36:52;13.70;99.90
8178;DHT22;4130;48.740;9.132;2023-04-30T07:39:19;13.80;99.90
8178;DHT22;4130;48.740;9.132;2023-04-30T07:41:45;13.80;99.90
8178;DHT22;4130;48.740;9.132;2023-04-30T07:44:14;13.60;99.90
8178;DHT22;4130;48.740;9.132;2023-04-30T07:46:41;13.60;99.90
8178;DHT22;4130;48.740;9.132;2023-04-30T07:49:07;13.70;99.90
8178;DHT22;4130;48.740;9.132;2023-04-30T07:51:36;13.60;99.90
8178;DHT22;4130;48.740;9.132;2023-04-30T07:54:03;13.60;99.90
8178;DHT22;4130;48.740;9.132;2023-04-30T07:56:30;13.70;99.90
8178;DHT22;4130;48.740;9.132;2023-04-30T07:58:57;13.70;99.90
8178;DHT22;4130;48.740;9.132;2023-04-30T08:01:25;13.80;99.90
8178;DHT22;4130;48.740;9.132;2023-04-30T08:03:52;13.80;99.90
8178;DHT22;4130;48.740;9.132;2023-04-30T08:06:19;13.90;99.90
8178;DHT22;4130;48.740;9.132;2023-04-30T08:08:45;14.10;99.90
8178;DHT22;4130;48.740;9.132;2023-04-30T08:11:12;14.30;99.90
8178;DHT22;4130;48.740;9.132;2023-04-30T08:13:39;14.50;99.90
8178;DHT22;4130;48.740;9.132;2023-04-30T08:16:07;14.50;99.90
8178;DHT22;4130;48.740;9.132;2023-04-30T08:18:35;14.50;99.90
8178;DHT22;4130;48.740;9.132;2023-04-30T08:21:03;14.60;99.90
8178;DHT22;4130;48.740;9.132;2023-04-30T08:23:30;14.50;99.90
8178;DHT22;4130;48.740;9.132;2023-04-30T08:25:57;14.80;99.90
8178;DHT22;4130;48.740;9.132;2023-04-30T08:28:24;15.00;99.90
8178;DHT22;4130;48.740;9.132;2023-04-30T08:30:51;15.20;99.90
8178;DHT22;4130;48.740;9.132;2023-04-30T08:33:18;15.40;99.90
8178;DHT22;4130;48.740;9.132;2023-04-30T08:35:46;15.80;99.90
8178;DHT22;4130;48.740;9.132;2023-04-30T08:38:12;16.20;99.90
8178;DHT22;4130;48.740;9.132;2023-04-30T08:40:39;16.30;99.90
8178;DHT22;4130;48.740;9.132;2023-04-30T08:43:07;16.30;99.90
8178;DHT22;4130;48.740;9.132;2023-04-30T08:45:36;16.20;99.90
8178;DHT22;4130;48.740;9.132;2023-04-30T08:48:04;15.90;99.90
8178;DHT22;4130;48.740;9.132;2023-04-30T08:50:31;15.80;99.90
8178;DHT22;4130;48.740;9.132;2023-04-30T08:53:01;15.80;99.90
8178;DHT22;4130;48.740;9.132;2023-04-30T08:55:28;15.90;99.90
8178;DHT22;4130;48.740;9.132;2023-04-30T08:57:55;15.80;99.90
8178;DHT22;4130;48.740;9.132;2023-04-30T09:00:22;16.10;99.90
8178;DHT22;4130;48.740;9.132;2023-04-30T09:02:49;16.20;99.90
8178;DHT22;4130;48.740;9.132;2023-04-30T09:05:15;16.20;99.90
8178;DHT22;4130;48.740;9.132;2023-04-30T09:07:43;16.40;99.90
8178;DHT22;4130;48.740;9.132;2023-04-30T09:10:16;16.40;99.90
8178;DHT22;4130;48.740;9.132;2023-04-30T09:12:43;16.40;99.90
8178;DHT22;4130;48.740;9.132;2023-04-30T09:15:11;16.20;99.90
8178;DHT22;4130;48.740;9.132;2023-04-30T09:17:38;16.00;99.90
8178;DHT22;4130;48.740;9.132;2023-04-30T09:20:09;15.90;99.90
8178;DHT22;4130;48.740;9.132;2023-04-30T09:22:37;16.00;99.90
8178;DHT22;4130;48.740;9.132;2023-04-30T09:25:06;16.10;99.90
8178;DHT22;4130;48.740;9.132;2023-04-30T09:27:34;16.10;99.90
8178;DHT22;4130;48.740;9.132;2023-04-30T09:30:01;16.30;99.90
8178;DHT22;4130;48.740;9.132;2023-04-30T09:32:29;16.40;99.90
8178;DHT22;4130;48.740;9.132;2023-04-30T09:34:55;16.50;99.90
8178;DHT22;4130;48.740;9.132;2023-04-30T09:37:34;16.60;99.90
8178;DHT22;4130;48.740;9.132;2023-04-30T09:40:01;16.80;99.90
8178;DHT22;4130;48.740;9.132;2023-04-30T09:42:29;16.80;99.20
8178;DHT22;4130;48.740;9.132;2023-04-30T09:44:57;16.80;99.90
8178;DHT22;4130;48.740;9.132;2023-04-30T09:47:28;16.70;99.40
8178;DHT22;4130;48.740;9.132;2023-04-30T09:49:58;16.70;99.40
8178;DHT22;4130;48.740;9.132;2023-04-30T09:52:25;16.50;98.90
8178;DHT22;4130;48.740;9.132;2023-04-30T09:54:51;16.60;98.70
8178;DHT22;4130;48.740;9.132;2023-04-30T09:57:21;16.80;99.20
8178;DHT22;4130;48.740;9.132;2023-04-30T09:59:51;17.10;98.70
8178;DHT22;4130;48.740;9.132;2023-04-30T10:02:20;17.30;98.20
8178;DHT22;4130;48.740;9.132;2023-04-30T10:04:52;17.40;98.00
8178;DHT22;4130;48.740;9.132;2023-04-30T10:07:20;17.40;98.20
8178;DHT22;4130;48.740;9.132;2023-04-30T10:09:54;17.30;98.80
8178;DHT22;4130;48.740;9.132;2023-04-30T10:12:26;17.30;98.40
8178;DHT22;4130;48.740;9.132;2023-04-30T10:14:56;17.20;97.10
8178;DHT22;4130;48.740;9.132;2023-04-30T10:17:26;17.00;97.90
8178;DHT22;4130;48.740;9.132;2023-04-30T10:19:57;17.00;98.30
8178;DHT22;4130;48.740;9.132;2023-04-30T10:22:29;17.10;97.60
8178;DHT22;4130;48.740;9.132;2023-04-30T10:24:56;17.00;97.10
8178;DHT22;4130;48.740;9.132;2023-04-30T10:27:22;16.90;96.20
8178;DHT22;4130;48.740;9.132;2023-04-30T10:29:49;17.10;96.70
8178;DHT22;4130;48.740;9.132;2023-04-30T10:32:17;17.10;96.80
8178;DHT22;4130;48.740;9.132;2023-04-30T10:34:52;17.00;96.40
8178;DHT22;4130;48.740;9.132;2023-04-30T10:37:26;17.00;96.80
8178;DHT22;4130;48.740;9.132;2023-04-30T10:39:56;17.20;97.00
8178;DHT22;4130;48.740;9.132;2023-04-30T10:42:23;17.40;96.60
8178;DHT22;4130;48.740;9.132;2023-04-30T10:44:49;17.30;96.40
8178;DHT22;4130;48.740;9.132;2023-04-30T10:47:16;17.40;96.80
8178;DHT22;4130;48.740;9.132;2023-04-30T10:49:46;17.50;95.80
8178;DHT22;4130;48.740;9.132;2023-04-30T10:52:25;17.70;96.60
8178;DHT22;4130;48.740;9.132;2023-04-30T10:54:52;17.90;96.00
8178;DHT22;4130;48.740;9.132;2023-04-30T10:57:20;17.90;96.10
8178;DHT22;4130;48.740;9.132;2023-04-30T10:59:52;17.80;95.40
8178;DHT22;4130;48.740;9.132;2023-04-30T11:02:20;17.90;96.10
8178;DHT22;4130;48.740;9.132;2023-04-30T11:05:15;17.60;95.60
8178;DHT22;4130;48.740;9.132;2023-04-30T11:07:47;17.30;95.50
8178;DHT22;4130;48.740;9.132;2023-04-30T11:10:15;17.40;96.70
8178;DHT22;4130;48.740;9.132;2023-04-30T11:12:47;17.50;96.20
8178;DHT22;4130;48.740;9.132;2023-04-30T11:15:16;17.70;96.20
8178;DHT22;4130;48.740;9.132;2023-04-30T11:17:43;17.90;95.70
8178;DHT22;4130;48.740;9.132;2023-04-30T11:20:12;17.90;95.40
8178;DHT22;4130;48.740;9.132;2023-04-30T11:22:40;17.70;95.50
8178;DHT22;4130;48.740;9.132;2023-04-30T11:25:09;17.40;95.10
8178;DHT22;4130;48.740;9.132;2023-04-30T11:27:40;17.50;95.20
8178;DHT22;4130;48.740;9.132;2023-04-30T11:30:12;17.40;95.00
8178;DHT22;4130;48.740;9.132;2023-04-30T11:32:44;17.40;95.40
8178;DHT22;4130;48.740;9.132;2023-04-30T11:35:13;17.20;95.40
8178;DHT22;4130;48.740;9.132;2023-04-30T11:37:45;17.20;95.10
8178;DHT22;4130;48.740;9.132;2023-04-30T11:40:13;17.20;95.30
8178;DHT22;4130;48.740;9.132;2023-04-30T11:42:41;17.30;95.60
8178;DHT22;4130;48.740;9.132;2023-04-30T11:45:10;17.50;96.00
8178;DHT22;4130;48.740;9.132;2023-04-30T11:47:42;17.40;95.20
8178;DHT22;4130;48.740;9.132;2023-04-30T11:50:11;17.70;95.20
8178;DHT22;4130;48.740;9.132;2023-04-30T11:52:38;17.60;95.20
8178;DHT22;4130;48.740;9.132;2023-04-30T11:55:11;17.70;95.30
8178;DHT22;4130;48.740;9.132;2023-04-30T11:57:39;17.80;94.80
8178;DHT22;4130;48.740;9.132;2023-04-30T12:00:09;17.80;94.40
8178;DHT22;4130;48.740;9.132;2023-04-30T12:02:36;18.10;94.50
8178;DHT22;4130;48.740;9.132;2023-04-30T12:05:04;18.40;94.90
8178;DHT22;4130;48.740;9.132;2023-04-30T12:07:31;18.50;94.50
8178;DHT22;4130;48.740;9.132;2023-04-30T12:09:58;18.70;94.50
8178;DHT22;4130;48.740;9.132;2023-04-30T12:12:30;18.70;93.70
8178;DHT22;4130;48.740;9.132;2023-04-30T12:14:56;18.40;94.10
8178;DHT22;4130;48.740;9.132;2023-04-30T12:17:32;18.80;94.80
8178;DHT22;4130;48.740;9.132;2023-04-30T12:20:00;18.60;93.80
8178;DHT22;4130;48.740;9.132;2023-04-30T12:22:27;18.60;94.00
8178;DHT22;4130;48.740;9.132;2023-04-30T12:24:54;18.50;94.20
8178;DHT22;4130;48.740;9.132;2023-04-30T12:27:22;18.40;94.00
8178;DHT22;4130;48.740;9.132;2023-04-30T12:29:50;18.30;94.20
8178;DHT22;4130;48.740;9.132;2023-04-30T12:32:20;18.20;93.50
8178;DHT22;4130;48.740;9.132;2023-04-30T12:34:47;18.20;93.90
8178;DHT22;4130;48.740;9.132;2023-04-30T12:37:16;18.30;94.30
8178;DHT22;4130;48.740;9.132;2023-04-30T12:39:42;18.40;93.90
8178;DHT22;4130;48.740;9.132;2023-04-30T12:42:09;18.40;94.30
8178;DHT22;4130;48.740;9.132;2023-04-30T12:44:42;18.40;93.80
8178;DHT22;4130;48.740;9.132;2023-04-30T12:47:10;18.20;93.90
8178;DHT22;4130;48.740;9.132;2023-04-30T12:49:39;17.90;93.60
8178;DHT22;4130;48.740;9.132;2023-04-30T12:52:10;17.90;94.50
8178;DHT22;4130;48.740;9.132;2023-04-30T12:54:38;17.80;93.80
8178;DHT22;4130;48.740;9.132;2023-04-30T12:57:07;17.90;94.60
8178;DHT22;4130;48.740;9.132;2023-04-30T12:59:36;18.00;94.70
8178;DHT22;4130;48.740;9.132;2023-04-30T13:02:07;18.30;94.40
8178;DHT22;4130;48.740;9.132;2023-04-30T13:04:36;18.50;93.70
8178;DHT22;4130;48.740;9.132;2023-04-30T13:07:03;18.70;93.90
8178;DHT22;4130;48.740;9.132;2023-04-30T13:09:30;18.70;93.90
8178;DHT22;4130;48.740;9.132;2023-04-30T13:11:57;18.90;94.20
8178;DHT22;4130;48.740;9.132;2023-04-30T13:14:24;19.20;93.30
8178;DHT22;4130;48.740;9.132;2023-04-30T13:16:51;19.30;93.70
8178;DHT22;4130;48.740;9.132;2023-04-30T13:19:18;19.30;92.90
8178;DHT22;4130;48.740;9.132;2023-04-30T13:21:46;19.10;93.40
8178;DHT22;4130;48.740;9.132;2023-04-30T13:24:13;19.40;93.90
8178;DHT22;4130;48.740;9.132;2023-04-30T13:26:40;19.80;93.90
8178;DHT22;4130;48.740;9.132;2023-04-30T13:29:07;20.30;93.40
8178;DHT22;4130;48.740;9.132;2023-04-30T13:31:34;20.60;93.50
8178;DHT22;4130;48.740;9.132;2023-04-30T13:34:00;20.20;92.40
8178;DHT22;4130;48.740;9.132;2023-04-30T13:36:27;20.00;93.00
8178;DHT22;4130;48.740;9.132;2023-04-30T13:38:56;19.70;93.00
8178;DHT22;4130;48.740;9.132;2023-04-30T13:41:23;19.50;92.40
8178;DHT22;4130;48.740;9.132;2023-04-30T13:43:50;19.30;93.10
8178;DHT22;4130;48.740;9.132;2023-04-30T13:46:17;19.10;92.90
8178;DHT22;4130;48.740;9.132;2023-04-30T13:48:43;19.40;92.60
8178;DHT22;4130;48.740;9.132;2023-04-30T13:51:12;19.40;92.50
8178;DHT22;4130;48.740;9.132;2023-04-30T13:53:39;19.10;93.00
8178;DHT22;4130;48.740;9.132;2023-04-30T13:56:07;18.80;92.40
8178;DHT22;4130;48.740;9.132;2023-04-30T13:58:34;18.70;92.50
8178;DHT22;4130;48.740;9.132;2023-04-30T14:01:01;18.40;92.70
8178;DHT22;4130;48.740;9.132;2023-04-30T14:03:28;18.40;92.80
8178;DHT22;4130;48.740;9.132;2023-04-30T14:05:55;18.70;93.40
8178;DHT22;4130;48.740;9.132;2023-04-30T14:08:22;18.70;92.60
8178;DHT22;4130;48.740;9.132;2023-04-30T14:10:49;18.70;93.00
8178;DHT22;4130;48.740;9.132;2023-04-30T14:13:17;18.60;92.70
8178;DHT22;4130;48.740;9.132;2023-04-30T14:15:44;18.40;92.60
8178;DHT22;4130;48.740;9.132;2023-04-30T14:18:12;18.30;92.90
8178;DHT22;4130;48.740;9.132;2023-04-30T14:20:38;18.10;92.50
8178;DHT22;4130;48.740;9.132;2023-04-30T14:23:05;17.90;92.40
8178;DHT22;4130;48.740;9.132;2023-04-30T14:25:33;17.70;92.30
8178;DHT22;4130;48.740;9.132;2023-04-30T14:27:59;17.60;92.70
8178;DHT22;4130;48.740;9.132;2023-04-30T14:30:27;17.60;92.80
8178;DHT22;4130;48.740;9.132;2023-04-30T14:32:54;17.80;93.10
8178;DHT22;4130;48.740;9.132;2023-04-30T14:35:21;18.00;92.80
8178;DHT22;4130;48.740;9.132;2023-04-30T14:37:48;18.10;93.10
8178;DHT22;4130;48.740;9.132;2023-04-30T14:40:15;18.10;92.80
8178;DHT22;4130;48.740;9.132;2023-04-30T14:42:42;18.10;92.60
8178;DHT22;4130;48.740;9.132;2023-04-30T14:45:09;18.20;92.70
8178;DHT22;4130;48.740;9.132;2023-04-30T14:47:38;18.20;92.50
8178;DHT22;4130;48.740;9.132;2023-04-30T14:50:05;18.30;92.60
8178;DHT22;4130;48.740;9.132;2023-04-30T14:52:32;18.40;92.30
8178;DHT22;4130;48.740;9.132;2023-04-30T14:54:59;18.60;92.50
8178;DHT22;4130;48.740;9.132;2023-04-30T14:57:25;18.50;92.50
8178;DHT22;4130;48.740;9.132;2023-04-30T14:59:53;18.50;92.30
8178;DHT22;4130;48.740;9.132;2023-04-30T15:02:22;18.40;92.40
8178;DHT22;4130;48.740;9.132;2023-04-30T15:04:50;18.40;92.20
8178;DHT22;4130;48.740;9.132;2023-04-30T15:07:17;18.40;91.90
8178;DHT22;4130;48.740;9.132;2023-04-30T15:09:44;18.40;92.10
8178;DHT22;4130;48.740;9.132;2023-04-30T15:12:11;18.40;92.40
8178;DHT22;4130;48.740;9.132;2023-04-30T15:14:38;18.40;92.00
8178;DHT22;4130;48.740;9.132;2023-04-30T15:17:06;18.30;92.40
8178;DHT22;4130;48.740;9.132;2023-04-30T15:19:32;18.30;92.10
8178;DHT22;4130;48.740;9.132;2023-04-30T15:22:00;18.40;91.90
8178;DHT22;4130;48.740;9.132;2023-04-30T15:24:27;18.30;92.20
8178;DHT22;4130;48.740;9.132;2023-04-30T15:26:54;18.30;92.20
8178;DHT22;4130;48.740;9.132;2023-04-30T15:29:21;18.30;92.10
8178;DHT22;4130;48.740;9.132;2023-04-30T15:31:48;18.30;92.00
8178;DHT22;4130;48.740;9.132;2023-04-30T15:34:19;18.40;92.70
8178;DHT22;4130;48.740;9.132;2023-04-30T15:36:46;18.40;92.40
8178;DHT22;4130;48.740;9.132;2023-04-30T15:39:14;18.40;92.30
8178;DHT22;4130;48.740;9.132;2023-04-30T15:41:42;18.20;92.10
8178;DHT22;4130;48.740;9.132;2023-04-30T15:44:09;18.20;92.10
8178;DHT22;4130;48.740;9.132;2023-04-30T15:46:36;18.10;91.70
8178;DHT22;4130;48.740;9.132;2023-04-30T15:49:02;18.20;92.30
8178;DHT22;4130;48.740;9.132;2023-04-30T15:51:29;18.00;92.20
8178;DHT22;4130;48.740;9.132;2023-04-30T15:53:56;17.90;92.00
8178;DHT22;4130;48.740;9.132;2023-04-30T15:56:24;17.80;92.10
8178;DHT22;4130;48.740;9.132;2023-04-30T15:58:51;17.60;92.10
8178;DHT22;4130;48.740;9.132;2023-04-30T16:01:18;17.40;92.00
8178;DHT22;4130;48.740;9.132;2023-04-30T16:03:45;17.30;92.70
8178;DHT22;4130;48.740;9.132;2023-04-30T16:06:12;17.20;92.60
8178;DHT22;4130;48.740;9.132;2023-04-30T16:08:40;17.10;92.30